Time;durP1;ratioP1;P1;durP2;ratioP2;P2;SDS_P1;SDS_P2;PMS_P1;PMS_P2;Temp;Humidity;BMP_temperature;BMP_pressure;BME280_temperature;BME280_humidity;BME280_pressure;Samples;Min_cycle;Max_cycle;Signal;HPM_P1;HPM_P2
2022/12/22 03:26:52;;;;;;;33.83;13.30;;;;;;;3.27;89.51;100615.42;1775308;81;21180;-78
2022/12/22 03:29:58;;;;;;;39.95;15.28;;;;;;;3.45;89.06;100615.80;1775408;81;21834;-78
2022/12/22 03:33:04;;;;;;;21.85;13.25;;;;;;;3.43;89.06;100612.34;1775269;81;21313;-78
2022/12/22 03:36:09;;;;;;;18.85;10.93;;;;;;;3.29;89.18;100605.36;1775267;81;21213;-78
2022/12/22 03:39:15;;;;;;;19.73;10.45;;;;;;;3.19;89.13;100611.11;1775237;81;21283;-78
2022/12/22 03:49:10;;;;;;;10.75;7.97;;;;;;;2.68;88.43;100611.99;1791249;79;21141;-78
2022/12/22 03:52:15;;;;;;;11.78;7.83;;;;;;;2.50;88.88;100605.70;1788325;79;21200;-78
2022/12/22 03:55:22;;;;;;;11.48;7.62;;;;;;;2.39;89.41;100608.34;1784910;79;21165;-78
2022/12/22 03:58:28;;;;;;;18.90;9.13;;;;;;;2.39;89.30;100611.03;1792714;79;21137;-78
2022/12/22 04:01:34;;;;;;;14.83;9.08;;;;;;;2.33;89.55;100609.30;1787818;79;21473;-77
2022/12/22 04:04:41;;;;;;;11.30;7.28;;;;;;;2.16;90.55;100612.77;1787837;79;21208;-79
2022/12/22 04:07:47;;;;;;;10.38;7.67;;;;;;;2.11;91.07;100615.45;1781439;79;21732;-81
2022/12/22 04:14:15;;;;;;;10.70;7.28;;;;;;;2.16;91.16;100610.56;1766870;79;21211;-81
2022/12/22 04:17:23;;;;;;;9.75;6.30;;;;;;;2.11;91.65;100614.10;1795464;79;21212;-81
2022/12/22 04:20:28;;;;;;;10.58;5.85;;;;;;;2.17;91.35;100610.97;1785600;79;21168;-81
2022/12/22 04:23:34;;;;;;;10.00;7.05;;;;;;;2.10;91.69;100608.34;1793721;79;21869;-78
2022/12/22 04:26:40;;;;;;;7.92;5.92;;;;;;;2.28;91.98;100614.56;1789648;79;21157;-78
2022/12/22 04:29:45;;;;;;;8.08;5.95;;;;;;;3.64;85.31;100607.55;1784157;79;21139;-78
2022/12/22 04:32:50;;;;;;;8.58;6.03;;;;;;;3.74;84.40;100617.50;1792305;79;21695;-78
2022/12/22 04:35:56;;;;;;;7.90;5.62;;;;;;;3.52;85.70;100618.36;1790419;79;21187;-78
2022/12/22 04:39:01;;;;;;;7.72;5.85;;;;;;;3.24;86.32;100618.36;1793446;79;21745;-78
2022/12/22 04:42:07;;;;;;;6.05;5.10;;;;;;;3.28;86.36;100614.92;1785702;79;21817;-79
2022/12/22 04:45:14;;;;;;;7.47;5.75;;;;;;;3.30;86.02;100611.62;1790286;79;21149;-78
2022/12/22 04:48:20;;;;;;;8.95;5.37;;;;;;;3.27;86.32;100614.07;1786809;79;21739;-81
2022/12/22 04:51:26;;;;;;;8.08;5.53;;;;;;;3.24;86.56;100603.48;1781162;79;21196;-81
2022/12/22 04:54:30;;;;;;;5.60;4.80;;;;;;;3.30;86.69;100601.67;1793731;79;21256;-78
2022/12/22 04:57:37;;;;;;;15.38;9.35;;;;;;;3.30;86.44;100608.43;1802815;79;21204;-80
2022/12/22 05:00:43;;;;;;;17.12;6.72;;;;;;;3.19;86.87;100609.75;1807013;79;21165;-80
2022/12/22 05:03:49;;;;;;;7.22;5.58;;;;;;;3.11;87.44;100605.97;1814235;78;21216;-78
2022/12/22 05:06:54;;;;;;;8.93;6.08;;;;;;;3.08;86.89;100601.16;1826967;78;21967;-78
2022/12/22 05:09:59;;;;;;;8.43;6.50;;;;;;;2.91;87.92;100602.10;1822048;78;21145;-78
2022/12/22 05:13:05;;;;;;;12.10;7.03;;;;;;;3.02;87.37;100604.84;1826636;78;21320;-78
2022/12/22 05:16:21;;;;;;;7.87;6.47;;;;;;;3.01;88.14;100605.80;1825610;78;21303;-78
2022/12/22 05:19:26;;;;;;;10.05;6.90;;;;;;;3.26;87.78;100608.80;1826682;78;21169;-81
2022/12/22 05:22:32;;;;;;;13.98;8.23;;;;;;;3.36;87.55;100608.92;1816112;78;21187;-81
2022/12/22 05:25:38;;;;;;;12.40;7.33;;;;;;;3.29;87.79;100616.18;1784200;79;21319;-81
2022/12/22 05:28:45;;;;;;;10.60;8.23;;;;;;;3.12;88.87;100611.23;1794061;80;21232;-79
2022/12/22 05:31:51;;;;;;;11.00;8.38;;;;;;;3.17;89.20;100613.09;1793106;80;21220;-79
2022/12/22 05:34:57;;;;;;;11.38;8.83;;;;;;;3.22;89.24;100616.28;1811945;78;21155;-79
2022/12/22 05:38:03;;;;;;;12.37;9.88;;;;;;;3.19;89.31;100619.22;1824050;78;21827;-79
2022/12/22 05:41:09;;;;;;;12.73;8.60;;;;;;;3.20;89.40;100620.96;1782664;80;21173;-79
2022/12/22 05:44:15;;;;;;;15.35;11.12;;;;;;;3.31;88.93;100633.13;1782792;78;21197;-79
2022/12/22 05:47:21;;;;;;;14.23;10.72;;;;;;;3.31;89.18;100634.48;1795886;78;21173;-79
2022/12/22 05:50:23;;;;;;;15.35;12.33;;;;;;;3.08;89.94;100634.08;1795590;79;21725;-79
2022/12/22 05:53:18;;;;;;;15.70;11.22;;;;;;;3.03;90.76;100645.75;1786001;79;21770;-79
2022/12/22 05:56:24;;;;;;;19.85;13.70;;;;;;;3.39;89.91;100646.51;1791438;78;21169;-79
2022/12/22 05:59:30;;;;;;;20.05;14.70;;;;;;;3.19;90.45;100649.45;1790275;78;21730;-80
2022/12/22 06:02:36;;;;;;;16.05;11.48;;;;;;;3.32;90.47;100654.27;1795437;78;21169;-79
2022/12/22 06:05:42;;;;;;;13.60;10.05;;;;;;;3.36;90.75;100655.75;1790226;78;21239;-79
2022/12/22 06:08:47;;;;;;;19.87;12.40;;;;;;;3.47;90.62;100661.64;1778776;79;21163;-80
2022/12/22 06:11:53;;;;;;;22.40;14.95;;;;;;;3.61;90.31;100657.34;1795610;79;21174;-80
2022/12/22 06:14:59;;;;;;;21.65;14.25;;;;;;;3.75;89.70;100661.14;1767747;79;21883;-80
2022/12/22 06:18:07;;;;;;;20.25;13.72;;;;;;;3.80;89.50;100654.87;1794387;79;21196;-80
2022/12/22 06:21:13;;;;;;;17.85;12.65;;;;;;;3.79;89.79;100655.00;1783824;79;21163;-79
2022/12/22 06:24:20;;;;;;;24.77;14.33;;;;;;;3.83;89.79;100654.63;1777034;79;21810;-79
2022/12/22 06:27:26;;;;;;;23.47;15.18;;;;;;;3.83;89.87;100661.39;1770147;79;21787;-80
2022/12/22 06:30:32;;;;;;;20.10;14.30;;;;;;;4.01;89.88;100660.89;1786172;79;21298;-79
2022/12/22 06:33:38;;;;;;;17.57;12.73;;;;;;;4.06;89.29;100661.38;1772453;79;21170;-80
2022/12/22 06:36:44;;;;;;;21.10;13.50;;;;;;;4.03;89.22;100657.05;1768193;79;21188;-80
2022/12/22 06:39:50;;;;;;;21.80;14.35;;;;;;;4.04;88.70;100659.27;1776604;79;21151;-80
2022/12/22 06:43:08;;;;;;;24.50;14.30;;;;;;;4.15;88.71;100666.53;1777455;79;21771;-80
2022/12/22 06:46:14;;;;;;;20.85;13.50;;;;;;;4.03;89.50;100669.23;1775578;79;21230;-79
2022/12/22 06:49:19;;;;;;;21.90;13.70;;;;;;;4.16;89.31;100668.23;1778922;79;21227;-80
2022/12/22 06:52:25;;;;;;;23.67;16.02;;;;;;;4.23;88.98;100668.08;1772329;79;21196;-81
2022/12/22 06:55:31;;;;;;;20.92;13.62;;;;;;;4.32;88.57;100658.70;1773186;79;21307;-79
2022/12/22 06:58:37;;;;;;;18.95;13.05;;;;;;;4.28;88.71;100664.03;1776716;79;21756;-80
2022/12/22 07:01:43;;;;;;;17.95;12.53;;;;;;;4.27;89.40;100669.55;1775333;79;21759;-80
2022/12/22 07:04:49;;;;;;;18.77;12.63;;;;;;;4.41;89.46;100667.05;1778680;79;21791;-80
2022/12/22 07:07:55;;;;;;;19.62;12.35;;;;;;;4.69;88.69;100659.67;1785122;78;21786;-80
2022/12/22 07:11:03;;;;;;;16.95;11.60;;;;;;;4.81;88.53;100670.84;1782421;79;21172;-80
2022/12/22 07:14:08;;;;;;;15.43;10.58;;;;;;;4.91;88.32;100660.08;1788528;78;21195;-81
2022/12/22 07:17:14;;;;;;;18.57;12.10;;;;;;;5.00;87.87;100664.70;1791633;78;21275;-81
2022/12/22 07:20:14;;;;;;;20.88;11.12;;;;;;;5.04;87.60;100672.95;1790210;79;21236;-80
2022/12/22 07:23:20;;;;;;;17.60;11.10;;;;;;;5.11;87.67;100670.05;1765398;79;21338;-80
2022/12/22 07:26:25;;;;;;;16.40;10.32;;;;;;;5.20;87.34;100671.11;1780394;78;21913;-81
2022/12/22 07:29:32;;;;;;;19.35;11.65;;;;;;;5.30;86.85;100677.45;1780557;79;21299;-80
2022/12/22 07:32:39;;;;;;;15.90;10.10;;;;;;;5.27;86.81;100668.25;1782080;78;21798;-80
2022/12/22 07:35:45;;;;;;;20.23;10.53;;;;;;;5.25;86.60;100674.28;1777873;78;21160;-81
2022/12/22 07:38:52;;;;;;;15.78;10.28;;;;;;;5.07;87.03;100674.52;1781582;78;21188;-80
2022/12/22 07:45:25;;;;;;;14.23;9.43;;;;;;;5.34;85.77;100655.85;1660952;84;21169;-80
2022/12/22 07:52:31;;;;;;;15.40;9.10;;;;;;;5.53;84.82;100644.73;1625184;86;21179;-80
2022/12/22 07:55:39;;;;;;;14.40;9.20;;;;;;;5.46;84.21;100644.44;1661191;84;21346;-80
2022/12/22 07:58:45;;;;;;;12.43;8.20;;;;;;;5.31;84.65;100640.33;1789147;78;21171;-81
2022/12/22 08:01:51;;;;;;;13.40;8.43;;;;;;;5.09;85.21;100642.22;1784061;78;21332;-80
2022/12/22 08:04:57;;;;;;;14.40;8.78;;;;;;;5.20;85.19;100634.50;1791260;78;21251;-81
2022/12/22 08:08:03;;;;;;;18.98;9.38;;;;;;;5.03;85.33;100636.45;1761732;79;21247;-80
2022/12/22 08:11:10;;;;;;;19.98;10.85;;;;;;;5.05;85.40;100633.98;1767468;80;21219;-80
2022/12/22 08:14:16;;;;;;;14.75;8.73;;;;;;;5.01;85.69;100627.11;1767636;80;21196;-80
2022/12/22 08:17:21;;;;;;;14.68;8.88;;;;;;;5.10;85.68;100626.81;1747546;81;21177;-80
2022/12/22 08:20:27;;;;;;;18.20;7.78;;;;;;;5.19;86.00;100621.94;1756919;81;21198;-80
2022/12/22 08:23:33;;;;;;;15.80;8.40;;;;;;;5.21;86.63;100625.36;1762351;80;21165;-79
2022/12/22 08:26:45;;;;;;;12.03;7.75;;;;;;;5.33;86.40;100621.59;1766698;80;21189;-80
2022/12/22 08:29:55;;;;;;;15.53;7.95;;;;;;;5.36;86.25;100617.73;1764582;80;21182;-79
2022/12/22 08:33:01;;;;;;;15.55;7.80;;;;;;;5.41;85.96;100619.56;1770494;80;21293;-80
2022/12/22 08:36:06;;;;;;;13.60;7.60;;;;;;;5.24;86.74;100618.83;1762912;81;22522;-80
2022/12/22 08:39:12;;;;;;;12.23;8.20;;;;;;;5.31;86.78;100614.56;1734505;82;21216;-80
2022/12/22 08:42:19;;;;;;;13.00;8.65;;;;;;;5.43;87.17;100615.36;1761081;81;21187;-78
2022/12/22 08:45:25;;;;;;;14.47;8.18;;;;;;;5.51;87.41;100620.97;1728463;81;21208;-78
2022/12/22 08:48:31;;;;;;;11.55;7.17;;;;;;;5.80;87.09;100610.22;1764302;81;21739;-79
2022/12/22 08:51:38;;;;;;;13.40;8.78;;;;;;;6.03;86.79;100602.23;1741021;81;21213;-78
2022/12/22 08:54:43;;;;;;;16.05;9.70;;;;;;;6.12;86.78;100609.53;1738545;81;21181;-80
2022/12/22 08:57:48;;;;;;;23.35;10.60;;;;;;;6.19;86.88;100607.61;1755430;81;21211;-79
2022/12/22 09:00:54;;;;;;;14.23;8.43;;;;;;;6.37;86.23;100602.69;1765381;81;21794;-80
2022/12/22 09:04:00;;;;;;;10.50;6.67;;;;;;;6.50;85.82;100610.58;1759585;81;21784;-80
2022/12/22 09:07:06;;;;;;;11.43;6.50;;;;;;;6.68;85.48;100616.16;1767632;79;21177;-80
2022/12/22 09:10:15;;;;;;;11.97;7.50;;;;;;;6.72;85.26;100603.97;1798844;78;21139;-81
2022/12/22 09:13:20;;;;;;;12.47;8.08;;;;;;;6.69;85.52;100600.70;1778316;79;21830;-80
2022/12/22 09:16:26;;;;;;;17.10;10.15;;;;;;;6.89;85.02;100598.30;1783307;78;21315;-81
2022/12/22 09:19:33;;;;;;;11.40;7.20;;;;;;;7.07;83.36;100607.44;1790499;77;21153;-81
2022/12/22 09:22:39;;;;;;;12.93;7.08;;;;;;;7.15;83.19;100599.87;1789202;79;21213;-82
2022/12/22 09:25:45;;;;;;;14.98;8.75;;;;;;;7.10;83.02;100592.16;1789505;78;21196;-80
2022/12/22 09:28:51;;;;;;;14.43;7.60;;;;;;;7.28;82.08;100599.56;1801252;78;21293;-81
2022/12/22 09:31:56;;;;;;;10.85;6.40;;;;;;;7.18;81.10;100588.72;1790853;78;21179;-81
2022/12/22 09:35:02;;;;;;;12.80;7.30;;;;;;;7.13;80.71;100593.74;1795098;78;21213;-81
2022/12/22 09:38:08;;;;;;;12.88;7.65;;;;;;;7.09;80.39;100592.31;1795432;78;21157;-82
2022/12/22 09:41:24;;;;;;;11.75;6.55;;;;;;;6.94;80.37;100590.56;1792563;78;21173;-81
2022/12/22 09:44:34;;;;;;;10.28;6.85;;;;;;;6.78;81.28;100585.73;1780330;78;21797;-80
2022/12/22 09:47:45;;;;;;;9.85;6.15;;;;;;;6.91;80.83;100582.19;1792765;79;21278;-80
2022/12/22 09:50:50;;;;;;;11.83;6.00;;;;;;;6.84;80.77;100570.70;1797215;78;21773;-81
2022/12/22 09:54:03;;;;;;;10.18;6.12;;;;;;;6.90;80.63;100571.46;1788906;79;21193;-80
2022/12/22 09:57:02;;;;;;;8.13;5.10;;;;;;;6.79;80.87;100565.69;1774306;79;22661;-80
2022/12/22 09:59:55;;;;;;;8.55;5.08;;;;;;;6.90;79.85;100564.66;1794018;79;21248;-80
2022/12/22 10:02:53;;;;;;;7.65;5.05;;;;;;;6.86;79.60;100565.45;1796968;79;21336;-80
2022/12/22 10:06:12;;;;;;;10.58;5.60;;;;;;;6.78;79.69;100557.19;1784035;79;21178;-80
2022/12/22 10:09:32;;;;;;;10.75;6.05;;;;;;;6.77;79.96;100560.03;1782235;80;21216;-80
2022/12/22 10:12:39;;;;;;;12.33;6.85;;;;;;;6.81;80.12;100555.52;1772946;81;21224;-80
2022/12/22 10:15:46;;;;;;;13.25;7.10;;;;;;;6.74;80.38;100552.19;1774242;79;21395;-80
2022/12/22 10:19:08;;;;;;;15.05;7.90;;;;;;;6.85;80.29;100552.86;1766179;79;21197;-80
2022/12/22 10:22:37;;;;;;;13.08;7.42;;;;;;;7.27;77.86;100547.52;1773045;79;21275;-80
2022/12/22 10:25:50;;;;;;;13.43;7.87;;;;;;;7.23;79.43;100551.03;1761607;79;21245;-80
2022/12/22 10:29:01;;;;;;;17.57;11.43;;;;;;;7.02;79.24;100543.10;1777529;79;21998;-80
2022/12/22 10:32:13;;;;;;;16.75;9.35;;;;;;;7.16;78.26;100539.05;1781441;79;21259;-79
2022/12/22 10:35:19;;;;;;;17.85;9.90;;;;;;;7.03;79.17;100538.52;1764329;81;21228;-80
2022/12/22 10:38:36;;;;;;;16.40;9.08;;;;;;;6.96;80.09;100542.31;1773429;81;21177;-80
2022/12/22 10:41:46;;;;;;;15.00;7.08;;;;;;;6.91;80.29;100539.18;1767119;79;21224;-80
2022/12/22 10:44:53;;;;;;;11.53;6.28;;;;;;;6.93;80.27;100539.05;1777798;79;21156;-79
2022/12/22 10:48:01;;;;;;;10.50;6.75;;;;;;;6.99;80.23;100537.09;1769077;81;22080;-79
2022/12/22 10:51:07;;;;;;;10.35;6.28;;;;;;;7.11;80.19;100544.08;1773558;81;21216;-80
2022/12/22 10:54:12;;;;;;;9.65;6.67;;;;;;;7.17;80.20;100540.76;1761513;79;21550;-80
2022/12/22 10:57:28;;;;;;;10.28;6.28;;;;;;;7.24;80.00;100541.86;1796360;79;21222;-79
2022/12/22 11:00:36;;;;;;;10.63;5.70;;;;;;;7.45;79.29;100536.20;1768348;79;21240;-80
2022/12/22 11:03:42;;;;;;;11.93;5.40;;;;;;;7.39;79.42;100530.86;1771626;79;21169;-80
2022/12/22 11:06:51;;;;;;;11.22;6.45;;;;;;;7.35;79.69;100531.31;1766574;79;21217;-80
2022/12/22 11:09:57;;;;;;;6.65;4.97;;;;;;;7.45;79.43;100532.63;1776031;78;21818;-79
2022/12/22 11:13:32;;;;;;;12.65;5.78;;;;;;;7.51;78.68;100523.34;1756478;80;21243;-80
2022/12/22 11:16:45;;;;;;;13.72;5.92;;;;;;;7.45;79.23;100520.38;1795361;79;21193;-79
2022/12/22 11:20:06;;;;;;;9.73;5.87;;;;;;;7.58;78.80;100512.72;1786531;79;21288;-79
2022/12/22 11:23:33;;;;;;;12.25;6.22;;;;;;;7.70;78.70;100516.92;1769215;79;21165;-79
2022/12/22 11:26:45;;;;;;;13.60;6.17;;;;;;;7.59;78.84;100508.98;1790948;79;21197;-79
2022/12/22 11:30:21;;;;;;;9.03;5.87;;;;;;;8.64;76.58;100505.58;1779279;80;21177;-79
2022/12/22 11:34:01;;;;;;;12.33;6.05;;;;;;;8.64;76.68;100494.67;1790106;79;21162;-79
2022/12/22 11:37:15;;;;;;;9.73;6.30;;;;;;;7.78;77.97;100490.30;1783339;78;21177;-80
2022/12/22 11:40:39;;;;;;;12.37;7.12;;;;;;;8.29;76.31;100489.61;1755092;81;21177;-79
2022/12/22 11:44:09;;;;;;;17.00;6.90;;;;;;;8.32;76.36;100485.70;1792199;80;21363;-79
2022/12/22 11:47:53;;;;;;;11.20;6.62;;;;;;;8.13;76.67;100477.19;1786883;79;21287;-80
2022/12/22 11:51:02;;;;;;;11.85;5.47;;;;;;;7.68;77.81;100476.76;1792741;80;21225;-79
2022/12/22 11:54:33;;;;;;;9.40;5.50;;;;;;;7.98;77.42;100477.39;1791786;79;21248;-79
2022/12/22 11:57:50;;;;;;;9.38;5.55;;;;;;;7.77;78.32;100474.48;1794494;80;21193;-80
2022/12/22 12:01:26;;;;;;;11.93;5.72;;;;;;;7.95;78.08;100470.38;1794100;80;21697;-79
2022/12/22 12:05:12;;;;;;;11.03;5.45;;;;;;;8.36;76.25;100472.11;1794340;80;21181;-79
2022/12/22 12:08:38;;;;;;;12.15;6.83;;;;;;;8.04;77.31;100470.80;1791993;79;21232;-80
2022/12/22 12:11:57;;;;;;;13.25;7.97;;;;;;;8.05;77.28;100464.88;1764261;81;21208;-79
2022/12/22 12:15:28;;;;;;;13.93;8.57;;;;;;;8.07;77.25;100462.33;1773812;81;21219;-79
2022/12/22 12:19:02;;;;;;;16.35;9.00;;;;;;;7.86;77.81;100455.84;1771210;81;21235;-78
2022/12/22 12:22:11;;;;;;;16.77;9.15;;;;;;;7.83;78.02;100460.74;1746862;81;21842;-78
2022/12/22 12:25:45;;;;;;;16.60;7.53;;;;;;;7.66;78.46;100467.87;1740695;82;21168;-79
2022/12/22 12:29:13;;;;;;;13.30;6.45;;;;;;;7.53;79.11;100468.73;1740705;82;21188;-79
2022/12/22 12:32:31;;;;;;;15.32;8.48;;;;;;;7.60;79.32;100467.98;1761164;81;21200;-78
2022/12/22 12:36:00;;;;;;;15.25;7.65;;;;;;;7.53;79.23;100465.54;1750052;81;21179;-79
2022/12/22 12:39:25;;;;;;;11.43;6.35;;;;;;;7.53;79.16;100457.85;1745280;82;21194;-78
2022/12/22 12:42:48;;;;;;;9.38;5.10;;;;;;;7.54;79.33;100462.31;1755611;81;21216;-78
2022/12/22 12:45:54;;;;;;;21.40;8.95;;;;;;;7.47;79.63;100460.69;1740488;82;21815;-79
2022/12/22 12:49:00;;;;;;;7.17;5.55;;;;;;;7.34;79.93;100462.43;1740573;82;21511;-79
2022/12/22 12:52:16;;;;;;;9.93;5.37;;;;;;;7.50;79.55;100459.54;1739850;82;21255;-78
2022/12/22 12:55:34;;;;;;;8.23;4.83;;;;;;;7.41;79.61;100458.08;1740568;82;21276;-79
2022/12/22 12:58:47;;;;;;;11.73;5.50;;;;;;;7.36;79.82;100460.91;1743844;81;21160;-79
2022/12/22 13:02:02;;;;;;;11.35;5.62;;;;;;;7.73;77.41;100451.28;1747071;81;21183;-78
2022/12/22 13:05:22;;;;;;;12.80;7.87;;;;;;;8.12;76.82;100450.96;1745360;81;21430;-79
2022/12/22 13:08:33;;;;;;;10.30;6.42;;;;;;;8.35;74.28;100449.96;1752847;81;21204;-79
2022/12/22 13:11:49;;;;;;;10.25;6.03;;;;;;;7.50;77.37;100456.81;1753233;81;21219;-79
2022/12/22 13:15:04;;;;;;;9.60;5.62;;;;;;;7.11;79.98;100459.76;1767923;81;21188;-79
2022/12/22 13:18:29;;;;;;;12.28;6.00;;;;;;;7.03;80.72;100461.00;1747480;80;21780;-79
2022/12/22 13:21:39;;;;;;;14.10;5.80;;;;;;;7.00;81.00;100463.50;1730766;82;21327;-80
2022/12/22 13:24:49;;;;;;;11.95;6.87;;;;;;;6.94;81.52;100470.05;1733053;82;21783;-80
2022/12/22 13:27:56;;;;;;;10.38;6.45;;;;;;;6.80;82.03;100467.31;1728142;82;21180;-80
2022/12/22 13:31:07;;;;;;;12.73;5.92;;;;;;;6.64;82.50;100463.36;1736885;82;21223;-80
2022/12/22 13:34:47;;;;;;;12.43;5.75;;;;;;;6.68;82.72;100473.91;1738035;82;21177;-80
2022/12/22 13:37:56;;;;;;;9.23;4.87;;;;;;;6.75;82.62;100470.98;1728934;82;21905;-80
2022/12/22 13:41:01;;;;;;;8.85;4.80;;;;;;;6.81;82.65;100465.80;1738759;82;21188;-80
2022/12/22 13:44:13;;;;;;;10.50;5.72;;;;;;;7.00;81.52;100469.45;1728792;82;21161;-79
2022/12/22 13:47:21;;;;;;;8.30;5.70;;;;;;;6.83;82.00;100467.87;1707673;84;21669;-79
2022/12/22 13:50:32;;;;;;;9.80;6.00;;;;;;;6.57;82.86;100466.30;1732378;82;21169;-79
2022/12/22 13:53:48;;;;;;;8.65;5.40;;;;;;;6.46;83.34;100462.91;1725771;82;21173;-78
2022/12/22 13:56:59;;;;;;;8.45;5.17;;;;;;;6.53;83.00;100456.72;1708288;84;21196;-78
2022/12/22 14:00:05;;;;;;;9.48;4.37;;;;;;;6.52;83.16;100463.16;1708771;84;22315;-77
2022/12/22 14:03:20;;;;;;;7.53;4.80;;;;;;;7.30;81.08;100456.94;1708221;84;21271;-78
2022/12/22 14:06:47;;;;;;;7.97;4.17;;;;;;;6.54;81.43;100463.01;1728881;82;21176;-77
2022/12/22 14:09:54;;;;;;;12.68;4.90;;;;;;;6.64;82.74;100460.64;1709168;84;21188;-78
2022/12/22 14:13:00;;;;;;;9.85;5.15;;;;;;;6.43;82.68;100462.68;1707137;82;21260;-78
2022/12/22 14:16:09;;;;;;;15.95;8.83;;;;;;;6.98;81.25;100456.02;1663657;86;21904;-78
2022/12/22 14:19:14;;;;;;;9.18;5.10;;;;;;;6.92;81.53;100452.54;1681627;84;21210;-78
2022/12/22 14:22:29;;;;;;;11.73;6.05;;;;;;;6.71;81.08;100451.89;1709931;84;21215;-78
2022/12/22 14:25:39;;;;;;;11.43;4.92;;;;;;;6.88;79.89;100455.20;1709396;84;21263;-78
2022/12/22 14:29:01;;;;;;;14.20;6.28;;;;;;;6.62;80.67;100457.70;1697465;84;21805;-78
2022/12/22 14:32:07;;;;;;;11.65;6.12;;;;;;;6.67;80.72;100456.75;1708482;84;21258;-78
2022/12/22 14:35:33;;;;;;;10.60;5.92;;;;;;;6.59;80.55;100460.23;1709633;84;21199;-78
2022/12/22 14:38:46;;;;;;;11.70;6.37;;;;;;;6.54;80.54;100465.72;1708267;84;21262;-77
2022/12/22 14:41:55;;;;;;;10.75;6.30;;;;;;;6.85;79.26;100461.78;1708274;84;21543;-78
2022/12/22 14:45:00;;;;;;;10.38;6.53;;;;;;;6.76;78.83;100463.17;1711193;84;21179;-77
2022/12/22 14:48:06;;;;;;;12.05;5.25;;;;;;;6.77;78.61;100460.30;1710642;84;21207;-78
2022/12/22 14:51:11;;;;;;;9.58;5.40;;;;;;;6.77;78.22;100457.58;1688032;83;21241;-78
2022/12/22 14:54:27;;;;;;;9.40;5.55;;;;;;;6.84;77.84;100459.22;1681289;85;21805;-79
2022/12/22 14:57:44;;;;;;;8.80;5.50;;;;;;;6.84;77.40;100453.78;1682336;85;21254;-78
2022/12/22 15:00:50;;;;;;;9.13;5.95;;;;;;;6.89;76.62;100452.83;1682200;85;21206;-78
2022/12/22 15:04:14;;;;;;;8.30;5.22;;;;;;;6.58;77.15;100456.28;1681522;85;21246;-78
2022/12/22 15:07:26;;;;;;;10.35;5.10;;;;;;;6.71;76.93;100454.09;1682304;85;22205;-79
2022/12/22 15:10:34;;;;;;;14.15;7.25;;;;;;;6.77;76.61;100452.14;1679231;85;21817;-78
2022/12/22 15:13:40;;;;;;;16.00;7.87;;;;;;;6.73;76.50;100452.58;1682040;85;21246;-78
2022/12/22 15:16:45;;;;;;;10.03;6.12;;;;;;;6.69;76.51;100458.84;1681722;85;21207;-76
2022/12/22 15:19:51;;;;;;;8.25;5.40;;;;;;;6.62;76.45;100454.48;1681566;83;21214;-79
2022/12/22 15:22:57;;;;;;;10.13;6.37;;;;;;;6.62;76.39;100455.84;1682271;85;21266;-80
2022/12/22 15:26:02;;;;;;;7.67;5.83;;;;;;;7.29;73.77;100450.27;1682226;85;21262;-80
2022/12/22 15:29:07;;;;;;;11.35;6.05;;;;;;;6.13;77.25;100448.80;1682451;85;21816;-80
2022/12/22 15:32:19;;;;;;;9.20;5.05;;;;;;;5.90;78.14;100449.05;1681086;85;21230;-79
2022/12/22 15:35:31;;;;;;;10.65;5.90;;;;;;;5.95;78.45;100444.58;1681491;85;21241;-80
2022/12/22 15:38:37;;;;;;;13.80;5.50;;;;;;;6.23;77.65;100446.92;1682418;85;21880;-80
2022/12/22 15:41:43;;;;;;;9.43;5.58;;;;;;;6.19;77.20;100439.20;1681155;84;21254;-79
2022/12/22 15:44:50;;;;;;;10.58;5.90;;;;;;;6.24;76.77;100440.48;1681558;85;21255;-80
2022/12/22 15:47:58;;;;;;;7.33;4.50;;;;;;;5.81;78.20;100435.48;1682692;85;22520;-79
2022/12/22 15:51:04;;;;;;;9.60;5.25;;;;;;;5.67;78.82;100438.11;1681219;85;21326;-79
2022/12/22 15:54:09;;;;;;;8.33;5.83;;;;;;;5.61;79.00;100435.97;1681071;85;21234;-79
2022/12/22 15:57:09;;;;;;;14.40;6.42;;;;;;;5.45;79.73;100434.30;1682520;85;21258;-79
2022/12/22 16:00:18;;;;;;;10.85;6.70;;;;;;;5.52;79.59;100428.67;1682506;85;21357;-80
2022/12/22 16:03:24;;;;;;;10.28;6.05;;;;;;;5.97;77.14;100427.63;1682415;85;21269;-80
2022/12/22 16:06:31;;;;;;;11.38;6.03;;;;;;;5.68;78.85;100431.67;1682647;85;21261;-78
2022/12/22 16:09:40;;;;;;;10.75;6.20;;;;;;;6.14;77.68;100431.49;1682567;85;21215;-78
2022/12/22 16:12:52;;;;;;;11.38;6.75;;;;;;;6.14;77.64;100431.49;1682731;85;21270;-78
2022/12/22 16:15:54;;;;;;;12.93;6.55;;;;;;;6.28;77.43;100430.19;1681131;85;21246;-78
2022/12/22 16:18:59;;;;;;;19.45;9.40;;;;;;;6.37;77.06;100431.52;1682424;85;21257;-79
2022/12/22 16:22:05;;;;;;;12.07;7.85;;;;;;;6.29;77.44;100427.81;1681264;84;21285;-78
2022/12/22 16:25:11;;;;;;;12.28;7.75;;;;;;;6.34;77.38;100430.44;1681108;84;21234;-78
2022/12/22 16:28:24;;;;;;;16.23;8.95;;;;;;;6.35;77.46;100429.94;1682532;85;21262;-78
2022/12/22 16:31:31;;;;;;;13.18;8.20;;;;;;;6.39;77.77;100431.37;1681065;85;21238;-78
2022/12/22 16:34:39;;;;;;;12.73;7.95;;;;;;;6.45;77.83;100418.58;1681910;85;21852;-78
2022/12/22 16:37:44;;;;;;;17.87;8.93;;;;;;;6.26;78.13;100418.62;1682325;85;21262;-79
2022/12/22 16:40:58;;;;;;;15.15;8.40;;;;;;;6.20;78.75;100420.54;1682353;85;21215;-79
2022/12/22 16:44:03;;;;;;;14.40;8.33;;;;;;;6.23;79.13;100422.98;1682462;85;21214;-79
2022/12/22 16:47:11;;;;;;;13.13;7.62;;;;;;;6.15;79.33;100418.27;1682393;85;21191;-78
2022/12/22 16:50:26;;;;;;;16.57;8.40;;;;;;;6.08;80.10;100415.78;1682379;85;21281;-78
2022/12/22 16:53:31;;;;;;;14.68;8.43;;;;;;;6.22;79.77;100418.55;1682372;85;21274;-78
2022/12/22 16:56:40;;;;;;;15.55;8.73;;;;;;;6.48;79.32;100418.77;1680879;85;21198;-78
2022/12/22 16:59:46;;;;;;;16.57;10.28;;;;;;;6.43;79.13;100406.98;1696546;84;22373;-78
2022/12/22 17:02:56;;;;;;;20.77;11.18;;;;;;;6.47;78.87;100417.06;1679875;84;21221;-79
2022/12/22 17:06:07;;;;;;;19.75;9.18;;;;;;;6.56;79.07;100410.73;1694238;84;21179;-79
2022/12/22 17:09:21;;;;;;;43.15;20.10;;;;;;;6.60;78.48;100407.58;1694316;84;21194;-78
2022/12/22 17:12:33;;;;;;;17.23;8.25;;;;;;;6.44;79.10;100405.11;1696851;84;21802;-78
2022/12/22 17:15:39;;;;;;;9.98;6.28;;;;;;;6.49;78.90;100409.09;1701604;84;21202;-78
2022/12/22 17:18:45;;;;;;;9.10;5.35;;;;;;;6.59;78.77;100403.66;1695326;84;21187;-78
2022/12/22 17:21:52;;;;;;;9.28;5.40;;;;;;;6.71;77.92;100402.45;1695533;84;21225;-78
2022/12/22 17:24:58;;;;;;;12.58;6.58;;;;;;;6.34;79.03;100401.06;1695902;84;21757;-77
2022/12/22 17:28:03;;;;;;;11.45;5.37;;;;;;;6.31;79.74;100404.95;1693640;84;21712;-78
2022/12/22 17:31:11;;;;;;;8.88;5.83;;;;;;;6.31;79.87;100404.95;1694268;84;21523;-78
2022/12/22 17:34:25;;;;;;;10.98;6.25;;;;;;;6.32;79.86;100408.02;1688651;84;21225;-78
2022/12/22 17:37:30;;;;;;;10.50;6.00;;;;;;;6.31;79.87;100409.53;1693589;84;21186;-78
2022/12/22 17:40:36;;;;;;;10.15;6.78;;;;;;;6.23;80.32;100404.81;1695656;84;21177;-78
2022/12/22 17:43:42;;;;;;;14.65;7.15;;;;;;;6.23;80.55;100399.89;1697294;84;21190;-78
2022/12/22 17:46:48;;;;;;;13.98;6.67;;;;;;;6.24;80.80;100397.52;1693095;84;21760;-78
2022/12/22 17:49:56;;;;;;;14.38;6.92;;;;;;;6.23;80.86;100402.09;1695426;84;21185;-77
2022/12/22 17:53:03;;;;;;;17.77;7.45;;;;;;;6.25;81.07;100400.59;1691756;84;21332;-77
2022/12/22 17:56:07;;;;;;;13.48;7.08;;;;;;;6.20;80.81;100399.66;1693542;84;21186;-78
2022/12/22 17:59:14;;;;;;;13.83;7.90;;;;;;;6.10;81.32;100406.98;1695213;84;21170;-77
2022/12/22 18:02:28;;;;;;;12.82;8.30;;;;;;;6.17;80.73;100402.70;1690910;84;21177;-77
2022/12/22 18:05:36;;;;;;;14.65;9.28;;;;;;;6.21;81.05;100400.05;1693663;84;21840;-78
2022/12/22 18:08:43;;;;;;;19.00;11.05;;;;;;;5.97;81.50;100405.91;1694941;84;21217;-78
2022/12/22 18:11:48;;;;;;;17.95;10.50;;;;;;;6.04;81.80;100410.28;1692660;84;22507;-77
2022/12/22 18:14:55;;;;;;;22.35;11.97;;;;;;;5.97;82.00;100401.84;1692654;84;21162;-78
2022/12/22 18:18:00;;;;;;;21.87;12.68;;;;;;;5.95;82.06;100400.29;1696569;84;21182;-78
2022/12/22 18:21:06;;;;;;;19.52;12.50;;;;;;;5.88;82.38;100398.12;1692006;84;21182;-78
2022/12/22 18:24:13;;;;;;;19.27;11.60;;;;;;;5.94;82.65;100401.30;1696678;83;21886;-77